createdAt,value
2023-04-18T00:00:12.158Z,7.70
2023-04-18T00:01:15.250Z,7.60
2023-04-18T00:02:18.742Z,7.60
2023-04-18T00:03:22.127Z,7.60
2023-04-18T00:04:26.080Z,7.60
2023-04-18T00:05:30.356Z,7.60
2023-04-18T00:06:35.811Z,7.60
2023-04-18T00:07:38.361Z,7.50
2023-04-18T00:08:41.574Z,7.60
2023-04-18T00:09:45.756Z,7.60
2023-04-18T00:10:49.096Z,7.60
2023-04-18T00:11:51.391Z,7.60
2023-04-18T00:12:54.679Z,7.60
2023-04-18T00:13:57.502Z,7.60
2023-04-18T00:15:00.794Z,7.60
2023-04-18T00:16:03.150Z,7.50
2023-04-18T00:17:08.805Z,7.50
2023-04-18T00:18:11.250Z,7.50
2023-04-18T00:19:14.374Z,7.50
2023-04-18T00:20:16.543Z,7.50
2023-04-18T00:21:19.844Z,7.50
2023-04-18T00:22:22.290Z,7.50
2023-04-18T00:23:28.273Z,7.50
2023-04-18T00:24:30.591Z,7.40
2023-04-18T00:25:35.121Z,7.50
2023-04-18T00:26:37.304Z,7.50
2023-04-18T00:27:40.701Z,7.40
2023-04-18T00:28:42.909Z,7.50
2023-04-18T00:29:47.053Z,7.40
2023-04-18T00:30:51.733Z,7.40
2023-04-18T00:31:54.941Z,7.40
2023-04-18T00:32:57.131Z,7.40
2023-04-18T00:34:01.440Z,7.40
2023-04-18T00:35:04.321Z,7.40
2023-04-18T00:36:07.893Z,7.40
2023-04-18T00:37:10.098Z,7.40
2023-04-18T00:38:13.540Z,7.40
2023-04-18T00:39:15.976Z,7.40
2023-04-18T00:40:19.728Z,7.40
2023-04-18T00:41:27.412Z,7.40
2023-04-18T00:42:34.373Z,7.40
2023-04-18T00:43:37.194Z,7.40
2023-04-18T00:44:40.504Z,7.40
2023-04-18T00:45:42.750Z,7.40
2023-04-18T00:46:46.947Z,7.50
2023-04-18T00:47:49.073Z,7.40
2023-04-18T00:48:52.727Z,7.40
2023-04-18T00:49:55.288Z,7.40
2023-04-18T00:51:00.350Z,7.40
2023-04-18T00:52:02.971Z,7.40
2023-04-18T00:53:07.133Z,7.40
2023-04-18T00:54:11.455Z,7.40
2023-04-18T00:55:15.107Z,7.40
2023-04-18T00:56:17.854Z,7.40
2023-04-18T00:57:23.460Z,7.40
2023-04-18T00:58:26.833Z,7.40
2023-04-18T00:59:30.594Z,7.40
2023-04-18T01:00:32.854Z,7.40
2023-04-18T01:01:36.731Z,7.40
2023-04-18T01:02:39.856Z,7.30
2023-04-18T01:03:43.415Z,7.30
2023-04-18T01:04:46.339Z,7.30
2023-04-18T01:05:49.806Z,7.30
2023-04-18T01:06:52.285Z,7.30
2023-04-18T01:08:00.338Z,7.30
2023-04-18T01:09:05.384Z,7.30
2023-04-18T01:10:10.174Z,7.30
2023-04-18T01:11:12.648Z,7.30
2023-04-18T01:12:16.146Z,7.30
2023-04-18T01:13:20.959Z,7.30
2023-04-18T01:14:27.459Z,7.30
2023-04-18T01:15:29.723Z,7.30
2023-04-18T01:16:34.533Z,7.20
2023-04-18T01:17:36.961Z,7.20
2023-04-18T01:18:40.263Z,7.20
2023-04-18T01:19:44.698Z,7.20
2023-04-18T01:20:51.129Z,7.20
2023-04-18T01:21:55.305Z,7.20
2023-04-18T01:23:00.514Z,7.20
2023-04-18T01:24:11.119Z,7.20
2023-04-18T01:25:14.977Z,7.10
2023-04-18T01:26:17.749Z,7.10
2023-04-18T01:27:21.146Z,7.10
2023-04-18T01:28:23.370Z,7.10
2023-04-18T01:29:26.916Z,7.20
2023-04-18T01:30:29.221Z,7.20
2023-04-18T01:31:36.792Z,7.10
2023-04-18T01:32:39.372Z,7.10
2023-04-18T01:33:42.775Z,7.10
2023-04-18T01:34:45.251Z,7.20
2023-04-18T01:35:50.033Z,7.10
2023-04-18T01:36:52.220Z,7.10
2023-04-18T01:37:55.628Z,7.20
2023-04-18T01:38:58.336Z,7.20
2023-04-18T01:40:03.972Z,7.10
2023-04-18T01:41:06.383Z,7.10
2023-04-18T01:42:09.675Z,7.10
2023-04-18T01:43:13.206Z,7.10
2023-04-18T01:44:16.947Z,7.10
2023-04-18T01:45:22.416Z,7.10
2023-04-18T01:46:25.896Z,7.10
2023-04-18T01:47:28.169Z,7.10
2023-04-18T01:48:33.144Z,7.10
2023-04-18T01:49:35.491Z,7.10
2023-04-18T01:50:38.836Z,7.10
2023-04-18T01:51:42.262Z,7.10
2023-04-18T01:52:45.713Z,7.10
2023-04-18T01:53:48.172Z,7.10
2023-04-18T01:54:51.800Z,7.10
2023-04-18T01:55:57.684Z,7.10
2023-04-18T01:57:01.193Z,7.10
2023-04-18T01:58:03.464Z,7.10
2023-04-18T01:59:07.373Z,7.10
2023-04-18T02:00:11.243Z,7.10
2023-04-18T02:01:20.348Z,7.10
2023-04-18T02:02:22.854Z,7.10
2023-04-18T02:03:26.831Z,7.10
2023-04-18T02:04:29.404Z,7.10
2023-04-18T02:05:32.913Z,7.10
2023-04-18T02:06:35.262Z,7.10
2023-04-18T02:07:38.689Z,7.10
2023-04-18T02:08:41.116Z,7.10
2023-04-18T02:09:44.524Z,7.10
2023-04-18T02:10:47.315Z,7.10
2023-04-18T02:11:52.473Z,7.10
2023-04-18T02:12:54.836Z,7.10
2023-04-18T02:13:59.607Z,7.10
2023-04-18T02:15:01.857Z,7.10
2023-04-18T02:16:05.438Z,7.10
2023-04-18T02:17:07.739Z,7.10
2023-04-18T02:18:11.617Z,7.10
2023-04-18T02:19:15.379Z,7.10
2023-04-18T02:20:19.004Z,7.10
2023-04-18T02:21:22.022Z,7.10
2023-04-18T02:22:25.586Z,7.10
2023-04-18T02:23:28.549Z,7.10
2023-04-18T02:24:32.067Z,7.00
2023-04-18T02:25:34.597Z,7.10
2023-04-18T02:26:38.102Z,7.00
2023-04-18T02:27:41.938Z,7.10
2023-04-18T02:28:45.416Z,7.00
2023-04-18T02:29:47.632Z,7.00
2023-04-18T02:30:50.922Z,7.00
2023-04-18T02:31:53.136Z,7.00
2023-04-18T02:32:57.953Z,7.00
2023-04-18T02:34:00.054Z,7.00
2023-04-18T02:35:03.641Z,7.00
2023-04-18T02:36:06.765Z,7.00
2023-04-18T02:37:11.304Z,7.00
2023-04-18T02:38:15.833Z,7.00
2023-04-18T02:39:19.262Z,7.00
2023-04-18T02:40:21.828Z,7.00
2023-04-18T02:41:25.076Z,7.00
2023-04-18T02:42:37.426Z,7.10
2023-04-18T02:43:43.160Z,7.00
2023-04-18T02:44:45.511Z,7.00
2023-04-18T02:45:48.909Z,7.00
2023-04-18T02:46:51.191Z,7.10
2023-04-18T02:47:56.482Z,7.10
2023-04-18T02:48:59.152Z,7.00
2023-04-18T02:50:03.233Z,7.00
2023-04-18T02:51:08.011Z,7.00
2023-04-18T02:52:15.667Z,7.00
2023-04-18T02:53:17.840Z,7.00
2023-04-18T02:54:28.759Z,7.00
2023-04-18T02:55:41.746Z,7.00
2023-04-18T02:56:45.421Z,7.00
2023-04-18T02:58:18.187Z,7.00
2023-04-18T02:59:27.729Z,7.00
2023-04-18T03:00:59.536Z,7.00
2023-04-18T03:02:04.443Z,7.00
2023-04-18T03:03:09.072Z,7.00
2023-04-18T03:04:28.924Z,7.00
2023-04-18T03:05:39.526Z,7.00
2023-04-18T03:06:43.453Z,7.00
2023-04-18T03:07:45.670Z,7.00
2023-04-18T03:08:48.921Z,7.00
2023-04-18T03:09:51.519Z,7.00
2023-04-18T03:11:00.263Z,7.00
2023-04-18T03:12:05.382Z,7.00
2023-04-18T03:13:09.144Z,7.00
2023-04-18T03:14:11.689Z,7.00
2023-04-18T03:15:27.845Z,6.90
2023-04-18T03:16:33.376Z,6.90
2023-04-18T03:17:37.734Z,7.00
2023-04-18T03:18:40.930Z,7.00
2023-04-18T03:19:45.257Z,7.00
2023-04-18T03:20:49.582Z,6.90
2023-04-18T03:21:53.403Z,6.90
2023-04-18T03:22:55.712Z,6.90
2023-04-18T03:24:01.840Z,6.90
2023-04-18T03:25:04.860Z,6.90
2023-04-18T03:26:21.423Z,6.90
2023-04-18T03:27:23.612Z,6.90
2023-04-18T03:28:26.815Z,6.90
2023-04-18T03:29:29.182Z,6.80
2023-04-18T03:30:34.138Z,6.90
2023-04-18T03:31:37.517Z,6.90
2023-04-18T03:32:42.180Z,6.80
2023-04-18T03:33:45.601Z,6.80
2023-04-18T03:34:48.781Z,6.80
2023-04-18T03:35:51.280Z,6.80
2023-04-18T03:36:54.833Z,6.80
2023-04-18T03:37:57.137Z,6.80
2023-04-18T03:39:02.829Z,6.80
2023-04-18T03:40:05.954Z,6.80
2023-04-18T03:41:09.275Z,6.80
2023-04-18T03:42:13.297Z,6.80
2023-04-18T03:43:18.184Z,6.80
2023-04-18T03:44:20.486Z,6.80
2023-04-18T03:45:23.756Z,6.80
2023-04-18T03:46:27.488Z,6.80
2023-04-18T03:47:33.564Z,6.80
2023-04-18T03:48:37.499Z,6.80
2023-04-18T03:49:44.056Z,6.80
2023-04-18T03:50:47.612Z,6.80
2023-04-18T03:51:50.853Z,6.80
2023-04-18T03:52:54.681Z,6.80
2023-04-18T03:53:56.964Z,6.80
2023-04-18T03:55:14.065Z,6.80
2023-04-18T03:56:16.344Z,6.80
2023-04-18T03:57:26.484Z,6.80
2023-04-18T03:58:34.160Z,6.80
2023-04-18T03:59:38.132Z,6.90
2023-04-18T04:00:41.552Z,6.80
2023-04-18T04:01:47.644Z,6.80
2023-04-18T04:02:50.088Z,6.80
2023-04-18T04:03:57.009Z,6.80
2023-04-18T04:04:59.673Z,6.80
2023-04-18T04:06:06.006Z,6.80
2023-04-18T04:07:08.901Z,6.80
2023-04-18T04:08:13.048Z,6.80
2023-04-18T04:09:15.413Z,6.80
2023-04-18T04:10:20.116Z,6.80
2023-04-18T04:11:23.894Z,6.80
2023-04-18T04:12:28.009Z,6.80
2023-04-18T04:13:30.180Z,6.80
2023-04-18T04:14:33.812Z,6.80
2023-04-18T04:15:37.409Z,6.80
2023-04-18T04:16:45.948Z,6.80
2023-04-18T04:17:51.407Z,6.80
2023-04-18T04:18:55.773Z,6.80
2023-04-18T04:20:02.574Z,6.80
2023-04-18T04:21:07.694Z,6.80
2023-04-18T04:22:21.000Z,6.70
2023-04-18T04:23:25.480Z,6.70
2023-04-18T04:24:29.436Z,6.70
2023-04-18T04:25:34.236Z,6.70
2023-04-18T04:26:42.761Z,6.70
2023-04-18T04:27:49.732Z,6.70
2023-04-18T04:28:53.785Z,6.70
2023-04-18T04:29:58.990Z,6.60
2023-04-18T04:31:04.591Z,6.70
2023-04-18T04:32:08.089Z,6.70
2023-04-18T04:33:14.342Z,6.60
2023-04-18T04:34:16.923Z,6.70
2023-04-18T04:35:23.384Z,6.60
2023-04-18T04:36:27.136Z,6.60
2023-04-18T04:37:33.486Z,6.70
2023-04-18T04:38:54.731Z,6.70
2023-04-18T04:40:09.234Z,6.70
2023-04-18T04:41:29.532Z,6.70
2023-04-18T04:42:31.729Z,6.70
2023-04-18T04:43:42.823Z,6.70
2023-04-18T04:44:48.315Z,6.60
2023-04-18T04:45:52.903Z,6.70
2023-04-18T04:46:59.728Z,6.70
2023-04-18T04:48:07.892Z,6.70
2023-04-18T04:49:12.097Z,6.60
2023-04-18T04:50:15.958Z,6.70
2023-04-18T04:51:19.610Z,6.70
2023-04-18T04:52:22.246Z,6.70
2023-04-18T04:53:27.029Z,6.70
2023-04-18T04:54:30.446Z,6.70
2023-04-18T04:55:34.824Z,6.60
2023-04-18T04:56:42.395Z,6.70
2023-04-18T04:57:45.129Z,6.70
2023-04-18T04:59:20.784Z,6.70
2023-04-18T05:00:23.448Z,6.70
2023-04-18T05:01:27.262Z,6.70
2023-04-18T05:02:31.762Z,6.70
2023-04-18T05:03:36.500Z,6.70
2023-04-18T05:04:39.990Z,6.60
2023-04-18T05:05:44.392Z,6.70
2023-04-18T05:06:47.394Z,6.70
2023-04-18T05:07:51.526Z,6.70
2023-04-18T05:08:59.642Z,6.70
2023-04-18T05:10:03.193Z,6.70
2023-04-18T05:11:06.021Z,6.70
2023-04-18T05:12:12.123Z,6.70
2023-04-18T05:13:17.776Z,6.70
2023-04-18T05:14:22.857Z,6.60
2023-04-18T05:15:28.551Z,6.70
2023-04-18T05:16:32.967Z,6.60
2023-04-18T05:17:35.734Z,6.70
2023-04-18T05:18:41.606Z,6.70
2023-04-18T05:19:49.084Z,6.70
2023-04-18T05:20:51.880Z,6.70
2023-04-18T05:21:55.959Z,6.80
2023-04-18T05:22:59.625Z,6.80
2023-04-18T05:24:04.201Z,6.80
2023-04-18T05:25:09.629Z,6.70
2023-04-18T05:26:14.247Z,6.70
2023-04-18T05:27:18.718Z,6.80
2023-04-18T05:28:23.596Z,6.80
2023-04-18T05:29:26.058Z,6.80
2023-04-18T05:30:29.501Z,6.80
2023-04-18T05:31:32.432Z,6.80
2023-04-18T05:32:36.836Z,6.90
2023-04-18T05:33:39.746Z,6.90
2023-04-18T05:34:43.411Z,6.90
2023-04-18T05:35:45.868Z,6.90
2023-04-18T05:36:49.566Z,7.00
2023-04-18T05:37:51.879Z,7.00
2023-04-18T05:38:55.208Z,7.00
2023-04-18T05:40:01.062Z,7.00
2023-04-18T05:41:04.740Z,7.10
2023-04-18T05:42:06.841Z,7.10
2023-04-18T05:43:11.403Z,7.10
2023-04-18T05:44:16.320Z,7.20
2023-04-18T05:45:18.857Z,7.20
2023-04-18T05:46:22.289Z,7.30
2023-04-18T05:47:27.113Z,7.50
2023-04-18T05:48:31.062Z,7.60
2023-04-18T05:49:33.621Z,7.60
2023-04-18T05:50:36.954Z,7.60
2023-04-18T05:51:39.340Z,7.60
2023-04-18T05:52:42.901Z,7.60
2023-04-18T05:53:45.146Z,7.60
2023-04-18T05:54:48.398Z,7.60
2023-04-18T05:55:51.606Z,7.60
2023-04-18T05:56:57.199Z,7.70
2023-04-18T05:58:00.564Z,7.70
2023-04-18T05:59:05.116Z,7.70
2023-04-18T06:00:11.478Z,7.70
2023-04-18T06:01:18.580Z,7.70
2023-04-18T06:02:21.292Z,7.80
2023-04-18T06:03:25.041Z,7.80
2023-04-18T06:04:27.758Z,7.90
2023-04-18T06:05:31.569Z,8.00
2023-04-18T06:06:34.455Z,8.10
2023-04-18T06:07:37.764Z,8.30
2023-04-18T06:08:41.358Z,8.40
2023-04-18T06:09:43.502Z,8.50
2023-04-18T06:10:47.091Z,8.40
2023-04-18T06:11:52.074Z,8.40
2023-04-18T06:12:55.156Z,8.40
2023-04-18T06:13:57.571Z,8.40
2023-04-18T06:15:02.273Z,8.40
2023-04-18T06:16:05.027Z,8.40
2023-04-18T06:17:10.096Z,8.30
2023-04-18T06:18:12.538Z,8.30
2023-04-18T06:19:15.644Z,8.30
2023-04-18T06:20:17.816Z,8.30
2023-04-18T06:21:22.074Z,8.30
2023-04-18T06:22:24.353Z,8.50
2023-04-18T06:23:28.200Z,8.70
2023-04-18T06:24:31.336Z,9.10
2023-04-18T06:25:34.845Z,9.50
2023-04-18T06:26:38.349Z,9.90
2023-04-18T06:27:42.090Z,10.20
2023-04-18T06:28:45.658Z,10.30
2023-04-18T06:29:48.921Z,10.50
2023-04-18T06:30:54.021Z,10.40
2023-04-18T06:31:57.932Z,10.20
2023-04-18T06:33:01.696Z,9.80
2023-04-18T06:34:04.121Z,9.60
2023-04-18T06:35:08.080Z,9.50
2023-04-18T06:36:11.698Z,9.20
2023-04-18T06:37:15.003Z,9.00
2023-04-18T06:38:18.364Z,8.90
2023-04-18T06:39:21.220Z,8.90
2023-04-18T06:40:24.572Z,8.90
2023-04-18T06:41:26.853Z,8.90
2023-04-18T06:42:30.603Z,8.90
2023-04-18T06:43:37.878Z,9.00
2023-04-18T06:44:40.365Z,9.10
2023-04-18T06:45:43.720Z,9.30
2023-04-18T06:46:47.418Z,9.70
2023-04-18T06:47:51.530Z,10.20
2023-04-18T06:48:54.963Z,10.40
2023-04-18T06:49:58.492Z,10.70
2023-04-18T06:51:02.128Z,10.50
2023-04-18T06:52:08.212Z,10.50
2023-04-18T06:53:14.842Z,10.40
2023-04-18T06:54:21.250Z,10.50
2023-04-18T06:55:23.464Z,10.50
2023-04-18T06:56:26.942Z,10.50
2023-04-18T06:57:29.982Z,10.40
2023-04-18T06:58:33.117Z,10.30
2023-04-18T06:59:35.833Z,10.30
2023-04-18T07:00:38.780Z,10.30
2023-04-18T07:01:41.745Z,10.30
2023-04-18T07:02:46.591Z,10.30
2023-04-18T07:03:48.856Z,10.20
2023-04-18T07:04:51.995Z,10.10
2023-04-18T07:05:55.578Z,10.60
2023-04-18T07:06:57.671Z,10.50
2023-04-18T07:08:00.878Z,10.60
2023-04-18T07:09:03.303Z,10.70
2023-04-18T07:10:11.574Z,10.60
2023-04-18T07:11:15.712Z,10.50
2023-04-18T07:12:18.089Z,10.30
2023-04-18T07:13:22.399Z,10.30
2023-04-18T07:14:26.455Z,10.10
2023-04-18T07:15:30.133Z,9.90
2023-04-18T07:16:40.400Z,9.80
2023-04-18T07:18:20.554Z,9.70
2023-04-18T07:20:13.109Z,9.70
2023-04-18T07:24:15.159Z,9.70
2023-04-18T07:25:43.043Z,9.80
2023-04-18T07:27:12.614Z,9.80
2023-04-18T07:28:35.183Z,9.60
2023-04-18T07:30:13.701Z,9.50
2023-04-18T07:31:25.148Z,9.50
2023-04-18T07:32:42.804Z,9.40
2023-04-18T07:33:50.056Z,9.30
2023-04-18T07:34:52.953Z,9.20
2023-04-18T07:35:56.732Z,9.20
2023-04-18T07:36:59.219Z,9.20
2023-04-18T07:38:02.637Z,9.20
2023-04-18T07:39:09.750Z,9.20
2023-04-18T07:40:13.999Z,9.30
2023-04-18T07:41:17.212Z,9.30
2023-04-18T07:42:19.521Z,9.20
2023-04-18T07:43:22.916Z,9.30
2023-04-18T07:44:26.301Z,9.10
2023-04-18T07:45:28.629Z,9.20
2023-04-18T07:46:34.090Z,9.30
2023-04-18T07:47:37.657Z,9.40
2023-04-18T07:48:47.471Z,9.40
2023-04-18T07:49:54.269Z,9.50
2023-04-18T07:50:57.779Z,9.60
2023-04-18T07:52:01.029Z,9.70
2023-04-18T07:53:04.490Z,9.80
2023-04-18T07:54:07.672Z,9.90
2023-04-18T07:55:11.167Z,10.10
2023-04-18T07:56:14.357Z,10.30
2023-04-18T07:57:17.430Z,10.40
2023-04-18T07:58:19.602Z,10.40
2023-04-18T07:59:22.600Z,10.40
2023-04-18T08:00:24.897Z,10.50
2023-04-18T08:01:27.977Z,10.40
2023-04-18T08:02:31.136Z,10.30
2023-04-18T08:03:36.270Z,10.10
2023-04-18T08:04:39.684Z,10.00
2023-04-18T08:05:44.596Z,9.90
2023-04-18T08:06:46.746Z,9.80
2023-04-18T08:07:49.959Z,9.80
2023-04-18T08:08:55.450Z,9.70
2023-04-18T08:09:58.609Z,9.70
2023-04-18T08:11:00.850Z,9.70
2023-04-18T08:12:03.896Z,9.70
2023-04-18T08:13:08.189Z,9.80
2023-04-18T08:14:11.637Z,9.80
2023-04-18T08:15:14.314Z,9.80
2023-04-18T08:16:17.704Z,9.80
2023-04-18T08:17:21.196Z,9.80
2023-04-18T08:18:23.230Z,9.80
2023-04-18T08:19:26.331Z,9.70
2023-04-18T08:20:28.455Z,9.70
2023-04-18T08:21:33.290Z,9.60
2023-04-18T08:22:49.941Z,9.50
2023-04-18T08:24:02.246Z,9.50
2023-04-18T08:25:05.979Z,9.40
2023-04-18T08:26:09.157Z,9.40
2023-04-18T08:27:11.302Z,9.40
2023-04-18T08:28:14.752Z,9.40
2023-04-18T08:29:17.848Z,9.40
2023-04-18T08:30:19.985Z,9.30
2023-04-18T08:31:23.055Z,9.20
2023-04-18T08:32:26.497Z,9.20
2023-04-18T08:33:29.730Z,9.20
2023-04-18T08:34:33.574Z,9.20
2023-04-18T08:35:36.806Z,9.20
2023-04-18T08:36:41.393Z,9.30
2023-04-18T08:37:43.543Z,9.20
2023-04-18T08:38:46.740Z,9.10
2023-04-18T08:39:48.777Z,9.00
2023-04-18T08:40:51.866Z,9.00
2023-04-18T08:41:59.526Z,9.10
2023-04-18T08:43:05.025Z,9.00
2023-04-18T08:44:08.448Z,9.00
2023-04-18T08:45:13.867Z,9.00
2023-04-18T08:46:17.110Z,9.00
2023-04-18T08:47:20.714Z,9.00
2023-04-18T08:48:23.952Z,9.10
2023-04-18T08:49:26.192Z,9.10
2023-04-18T08:50:29.389Z,9.20
2023-04-18T08:51:33.945Z,9.20
2023-04-18T08:52:40.060Z,9.10
2023-04-18T08:53:45.017Z,9.10
2023-04-18T08:54:47.269Z,9.10
2023-04-18T08:55:55.022Z,9.10
2023-04-18T08:57:08.749Z,9.10
2023-04-18T08:58:12.408Z,9.20
2023-04-18T08:59:18.453Z,9.20
2023-04-18T09:00:20.720Z,9.30
2023-04-18T09:01:24.153Z,9.30
2023-04-18T09:02:42.584Z,9.40
2023-04-18T09:03:46.436Z,9.40
2023-04-18T09:04:52.830Z,9.50
2023-04-18T09:06:09.402Z,9.50
2023-04-18T09:07:14.410Z,9.50
2023-04-18T09:08:25.681Z,9.40
2023-04-18T09:09:29.068Z,9.40
2023-04-18T09:10:34.794Z,9.50
2023-04-18T09:11:36.856Z,9.50
2023-04-18T09:12:50.216Z,9.50
2023-04-18T09:13:56.070Z,9.60
2023-04-18T09:15:11.499Z,9.50
2023-04-18T09:16:14.549Z,9.50
2023-04-18T09:17:34.549Z,9.40
2023-04-18T09:18:36.876Z,9.50
2023-04-18T09:19:48.800Z,9.50
2023-04-18T09:20:51.855Z,9.50
2023-04-18T09:21:58.753Z,9.60
2023-04-18T09:23:03.689Z,9.60
2023-04-18T09:24:22.510Z,9.60
2023-04-18T09:25:27.372Z,9.70
2023-04-18T09:26:35.803Z,9.70
2023-04-18T09:27:38.899Z,9.70
2023-04-18T09:28:42.231Z,9.70
2023-04-18T09:29:46.959Z,9.60
2023-04-18T09:30:52.475Z,9.60
2023-04-18T09:32:03.379Z,9.60
2023-04-18T09:33:09.509Z,9.50
2023-04-18T09:34:24.824Z,9.60
2023-04-18T09:35:28.280Z,9.60
2023-04-18T09:36:31.437Z,9.60
2023-04-18T09:37:34.978Z,9.60
2023-04-18T09:38:41.480Z,9.70
2023-04-18T09:39:45.142Z,9.80
2023-04-18T09:40:48.208Z,9.80
2023-04-18T09:41:58.495Z,9.80
2023-04-18T09:43:01.667Z,9.80
2023-04-18T09:44:15.062Z,9.80
2023-04-18T09:45:18.524Z,9.80
2023-04-18T09:46:22.469Z,9.70
2023-04-18T09:47:25.792Z,9.70
2023-04-18T09:48:28.807Z,9.70
2023-04-18T09:49:30.862Z,9.80
2023-04-18T09:50:34.807Z,9.80
2023-04-18T09:51:38.364Z,9.90
2023-04-18T09:52:43.179Z,9.90
2023-04-18T09:53:47.538Z,9.90
2023-04-18T09:54:56.502Z,9.80
2023-04-18T09:56:00.067Z,9.80
2023-04-18T09:57:05.283Z,9.80
2023-04-18T09:58:08.825Z,9.80
2023-04-18T09:59:11.988Z,9.80
2023-04-18T10:00:24.075Z,9.90
2023-04-18T10:01:28.709Z,9.90
2023-04-18T10:02:38.230Z,10.00
2023-04-18T10:03:48.132Z,10.00
2023-04-18T10:04:51.636Z,9.90
2023-04-18T10:05:57.670Z,10.00
2023-04-18T10:07:01.191Z,10.00
2023-04-18T10:08:04.930Z,10.10
2023-04-18T10:09:09.519Z,10.00
2023-04-18T10:10:14.397Z,10.00
2023-04-18T10:11:18.523Z,10.20
2023-04-18T10:12:22.346Z,10.30
2023-04-18T10:13:27.667Z,10.30
2023-04-18T10:14:32.027Z,10.30
2023-04-18T10:15:35.760Z,10.40
2023-04-18T10:16:38.728Z,10.40
2023-04-18T10:17:56.044Z,10.40
2023-04-18T10:19:22.577Z,10.50
2023-04-18T10:20:27.340Z,10.40
2023-04-18T10:21:29.512Z,10.40
2023-04-18T10:22:32.956Z,10.40
2023-04-18T10:23:38.281Z,10.40
2023-04-18T10:24:48.153Z,10.30
2023-04-18T10:25:53.281Z,10.20
2023-04-18T10:26:55.967Z,10.20
2023-04-18T10:28:00.843Z,10.10
2023-04-18T10:29:04.005Z,10.10
2023-04-18T10:30:09.124Z,10.10
2023-04-18T10:31:12.561Z,10.00
2023-04-18T10:32:14.925Z,10.00
2023-04-18T10:33:32.221Z,9.90
2023-04-18T10:34:38.130Z,9.90
2023-04-18T10:35:56.805Z,9.90
2023-04-18T10:37:06.478Z,9.80
2023-04-18T10:38:17.021Z,9.80
2023-04-18T10:39:25.539Z,9.90
2023-04-18T10:40:34.132Z,9.90
2023-04-18T10:41:50.932Z,9.80
2023-04-18T10:42:59.344Z,9.90
2023-04-18T10:44:18.340Z,9.90
2023-04-18T10:45:22.699Z,10.00
2023-04-18T10:46:31.898Z,10.00
2023-04-18T10:47:36.413Z,10.10
2023-04-18T10:48:39.203Z,10.10
2023-04-18T10:49:55.050Z,10.10
2023-04-18T10:51:17.905Z,10.10
2023-04-18T10:52:19.868Z,10.10
2023-04-18T10:53:23.176Z,10.00
2023-04-18T10:54:30.833Z,10.10
2023-04-18T10:55:34.216Z,10.00
2023-04-18T10:56:37.837Z,10.00
2023-04-18T10:57:42.659Z,10.00
2023-04-18T10:58:51.978Z,10.00
2023-04-18T10:59:54.916Z,9.90
2023-04-18T11:00:58.419Z,10.00
2023-04-18T11:02:23.288Z,10.00
2023-04-18T11:03:34.208Z,9.90
2023-04-18T11:04:37.498Z,10.00
2023-04-18T11:05:40.648Z,10.00
2023-04-18T11:06:50.250Z,10.10
2023-04-18T11:07:53.993Z,10.10
2023-04-18T11:09:09.983Z,10.30
2023-04-18T11:10:14.314Z,10.40
2023-04-18T11:11:18.903Z,10.50
2023-04-18T11:12:23.157Z,10.70
2023-04-18T11:13:28.162Z,10.80
2023-04-18T11:14:41.375Z,10.90
2023-04-18T11:15:44.412Z,11.00
2023-04-18T11:16:46.528Z,11.10
2023-04-18T11:17:58.472Z,11.10
2023-04-18T11:19:00.982Z,11.00
2023-04-18T11:20:09.064Z,10.90
2023-04-18T11:21:12.193Z,10.80
2023-04-18T11:22:15.225Z,10.80
2023-04-18T11:23:22.837Z,10.80
2023-04-18T11:24:24.982Z,10.80
2023-04-18T11:25:30.451Z,10.90
2023-04-18T11:26:33.892Z,10.90
2023-04-18T11:27:38.344Z,10.90
2023-04-18T11:28:43.044Z,10.90
2023-04-18T11:29:45.315Z,10.80
2023-04-18T11:30:48.524Z,10.80
2023-04-18T11:31:51.777Z,10.70
2023-04-18T11:32:55.965Z,10.70
2023-04-18T11:33:59.167Z,10.60
2023-04-18T11:35:01.172Z,10.60
2023-04-18T11:36:04.412Z,10.60
2023-04-18T11:37:07.528Z,10.70
2023-04-18T11:38:12.784Z,10.80
2023-04-18T11:39:15.749Z,10.80
2023-04-18T11:40:18.924Z,10.80
2023-04-18T11:41:21.865Z,10.80
2023-04-18T11:42:27.665Z,10.80
2023-04-18T11:43:32.004Z,10.80
2023-04-18T11:44:36.314Z,10.80
2023-04-18T11:45:39.517Z,10.70
2023-04-18T11:46:42.304Z,10.70
2023-04-18T11:47:47.340Z,10.70
2023-04-18T11:48:50.889Z,10.80
2023-04-18T11:49:57.373Z,10.80
2023-04-18T11:51:01.073Z,10.80
2023-04-18T11:52:13.093Z,10.90
2023-04-18T11:53:15.215Z,11.00
2023-04-18T11:54:39.765Z,11.10
2023-04-18T11:55:42.830Z,11.20
2023-04-18T11:56:48.492Z,11.30
2023-04-18T11:57:53.141Z,11.40
2023-04-18T11:58:56.593Z,11.50
2023-04-18T12:00:01.628Z,11.60
2023-04-18T12:01:17.947Z,11.70
2023-04-18T12:02:22.504Z,11.70
2023-04-18T12:03:26.100Z,11.70
2023-04-18T12:04:28.486Z,11.60
2023-04-18T12:05:32.880Z,11.80
2023-04-18T12:06:48.600Z,11.80
2023-04-18T12:07:51.654Z,11.80
2023-04-18T12:08:58.958Z,11.80
2023-04-18T12:10:02.449Z,11.80
2023-04-18T12:11:05.814Z,11.80
2023-04-18T12:12:07.845Z,11.70
2023-04-18T12:13:11.001Z,11.70
2023-04-18T12:14:21.467Z,11.70
2023-04-18T12:15:27.247Z,11.70
2023-04-18T12:16:33.429Z,11.80
2023-04-18T12:17:38.411Z,11.80
2023-04-18T12:18:41.874Z,11.60
2023-04-18T12:19:47.438Z,11.70
2023-04-18T12:20:54.277Z,11.70
2023-04-18T12:21:57.691Z,11.80
2023-04-18T12:23:00.730Z,11.80
2023-04-18T12:24:13.427Z,11.80
2023-04-18T12:25:27.774Z,11.80
2023-04-18T12:26:31.484Z,11.90
2023-04-18T12:27:48.006Z,12.00
2023-04-18T12:28:53.696Z,12.00
2023-04-18T12:29:57.068Z,12.10
2023-04-18T12:31:00.301Z,12.30
2023-04-18T12:32:02.563Z,12.20
2023-04-18T12:33:06.636Z,12.30
2023-04-18T12:34:08.767Z,12.30
2023-04-18T12:35:11.799Z,12.20
2023-04-18T12:36:14.776Z,12.10
2023-04-18T12:37:16.763Z,12.00
2023-04-18T12:38:22.593Z,11.90
2023-04-18T12:39:25.973Z,12.00
2023-04-18T12:40:30.444Z,12.00
2023-04-18T12:41:32.533Z,12.00
2023-04-18T12:42:35.556Z,12.10
2023-04-18T12:43:38.630Z,12.00
2023-04-18T12:44:41.011Z,12.10
2023-04-18T12:45:46.545Z,12.20
2023-04-18T12:46:48.581Z,12.20
2023-04-18T12:47:53.190Z,12.20
2023-04-18T12:48:57.101Z,12.20
2023-04-18T12:49:59.082Z,12.20
2023-04-18T12:51:02.049Z,12.20
2023-04-18T12:52:04.271Z,12.30
2023-04-18T12:53:07.288Z,12.30
2023-04-18T12:54:09.263Z,12.20
2023-04-18T12:55:12.623Z,12.20
2023-04-18T12:56:16.548Z,12.20
2023-04-18T12:57:18.802Z,12.10
2023-04-18T12:58:21.823Z,12.00
2023-04-18T12:59:24.072Z,11.90
2023-04-18T13:00:29.215Z,11.90
2023-04-18T13:01:33.710Z,11.90
2023-04-18T13:02:39.458Z,11.80
2023-04-18T13:03:42.925Z,11.80
2023-04-18T13:04:46.095Z,11.70
2023-04-18T13:05:49.213Z,11.70
2023-04-18T13:06:51.255Z,11.70
2023-04-18T13:08:08.623Z,11.60
2023-04-18T13:09:17.878Z,11.60
2023-04-18T13:10:22.358Z,11.60
2023-04-18T13:11:28.417Z,11.60
2023-04-18T13:12:31.715Z,11.70
2023-04-18T13:13:35.809Z,11.70
2023-04-18T13:14:37.991Z,11.70
2023-04-18T13:15:41.341Z,11.80
2023-04-18T13:16:45.060Z,11.70
2023-04-18T13:17:48.683Z,11.70
2023-04-18T13:18:51.887Z,11.60
2023-04-18T13:19:54.113Z,11.50
2023-04-18T13:20:57.155Z,11.50
2023-04-18T13:21:59.197Z,11.50
2023-04-18T13:23:03.802Z,11.40
2023-04-18T13:24:06.546Z,11.30
2023-04-18T13:25:11.373Z,11.30
2023-04-18T13:26:13.584Z,11.30
2023-04-18T13:27:16.748Z,11.30
2023-04-18T13:28:19.792Z,11.30
2023-04-18T13:29:21.876Z,11.30
2023-04-18T13:30:25.090Z,11.40
2023-04-18T13:31:27.262Z,11.40
2023-04-18T13:32:32.228Z,11.40
2023-04-18T13:33:35.287Z,11.50
2023-04-18T13:34:39.338Z,11.50
2023-04-18T13:35:42.697Z,11.40
2023-04-18T13:36:44.764Z,11.40
2023-04-18T13:37:48.404Z,11.30
2023-04-18T13:38:51.526Z,11.30
2023-04-18T13:39:54.595Z,11.30
2023-04-18T13:41:08.896Z,11.20
2023-04-18T13:42:16.360Z,11.20
2023-04-18T13:43:18.694Z,11.10
2023-04-18T13:44:22.035Z,11.10
2023-04-18T13:45:25.391Z,11.00
2023-04-18T13:46:28.202Z,11.00
2023-04-18T13:47:33.007Z,11.10
2023-04-18T13:48:35.128Z,11.10
2023-04-18T13:49:38.522Z,11.10
2023-04-18T13:50:44.473Z,11.20
2023-04-18T13:51:46.584Z,11.20
2023-04-18T13:52:51.800Z,11.20
2023-04-18T13:53:54.031Z,11.10
2023-04-18T13:54:57.183Z,11.10
2023-04-18T13:56:01.249Z,11.00
2023-04-18T13:57:11.298Z,11.00
2023-04-18T13:58:14.402Z,10.90
2023-04-18T13:59:16.572Z,10.80
2023-04-18T14:00:20.421Z,10.70
2023-04-18T14:01:22.882Z,10.70
2023-04-18T14:02:26.311Z,10.60
2023-04-18T14:03:30.148Z,10.60
2023-04-18T14:04:34.267Z,10.60
2023-04-18T14:05:37.443Z,10.60
2023-04-18T14:06:39.601Z,10.60
2023-04-18T14:07:42.955Z,10.60
2023-04-18T14:08:45.033Z,10.50
2023-04-18T14:09:48.190Z,10.50
2023-04-18T14:10:51.282Z,10.50
2023-04-18T14:11:54.630Z,10.40
2023-04-18T14:12:57.031Z,10.40
2023-04-18T14:14:00.197Z,10.30
2023-04-18T14:15:03.475Z,10.30
2023-04-18T14:16:06.900Z,10.30
2023-04-18T14:17:10.315Z,10.30
2023-04-18T14:18:12.487Z,10.30
2023-04-18T14:19:17.994Z,10.30